Startpagina
METAR-TAF:

METAR-TAF

Vliegvelden :

Militair vliegvled

Linköping, Zweden

breedte: 58-24N, lengte: 015-31E, hoogte: 93 m

Actueel weer

Dit bericht is 30 minuten geleden gemaakt, om 01:20 UTC
Wind 12 kt uit het westzuidwesten
Temperatuur 7°C
Vochtigheid 87%
Druk 1009 hPa
Zicht 10 km of meer

METAR: ESCF 240120Z AUTO 24012KT 9999 OVC014/// 07/05 Q1009

Tijdstip: 02:50 (01:50 UTC)

Verwachting

Dit bericht is 8 uur en het 20 minuten geleden gemaakt, om 17:30 UTC
Verwachting geldig van 23 om 18 UTC tot 23 om 21 UTC
Wind 16 kt uit het westen met uitschieters tot 26 kt
Zicht 10 km of meer
Gebroken wolken op 1800 ft
Tijdelijke
van 23 om 18 UTC tot 23 om 21 UTC
Gebroken wolken op 1000 ft
Tijdelijke
van 23 om 18 UTC tot 23 om 21 UTC
Wind 22 kt uit het westen met uitschieters tot 28 kt

TAF: ESCF 231730Z 2318/2321 26016G26KT 9999 BKN018 TEMPO 2318/2321 BKN010 TEMPO 2318/2321 26022G28KT RMK MIL

Waarnemingen en weersverwachtingen van meer dan 4000 vliegvelden (METAR en TAF).

De beschikbare stations zijn de gele en rode punten op de kaart.

Ga met uw muis naar het station om de naam te zien.

Klik dan om waarnemingen en weersverwachtingen te zien.

kaart wijzigen: klik op de groene knoppen met een zwart kruis om in te zoomen, op de groene knop met een streepje om uit te zoomen of op de groene pijlen voor aangrenzende kaarten.


METAR-TAF: